sensor_id;sensor_type;location;lat;lon;timestamp;P1;durP1;ratioP1;P2;durP2;ratioP2
58083;SDS011;43882;51.550;11.858;2022-12-20T00:02:14;35.92;;;14.80;;
58083;SDS011;43882;51.550;11.858;2022-12-20T00:04:40;36.40;;;15.05;;
58083;SDS011;43882;51.550;11.858;2022-12-20T00:07:06;35.90;;;15.52;;
58083;SDS011;43882;51.550;11.858;2022-12-20T00:09:32;36.67;;;14.50;;
58083;SDS011;43882;51.550;11.858;2022-12-20T00:11:58;33.97;;;14.77;;
58083;SDS011;43882;51.550;11.858;2022-12-20T00:14:24;35.47;;;15.32;;
58083;SDS011;43882;51.550;11.858;2022-12-20T00:16:50;36.78;;;15.27;;
58083;SDS011;43882;51.550;11.858;2022-12-20T00:19:16;37.08;;;15.00;;
58083;SDS011;43882;51.550;11.858;2022-12-20T00:21:42;40.53;;;16.42;;
58083;SDS011;43882;51.550;11.858;2022-12-20T00:24:09;39.90;;;15.88;;
58083;SDS011;43882;51.550;11.858;2022-12-20T00:26:35;39.80;;;16.23;;
58083;SDS011;43882;51.550;11.858;2022-12-20T00:29:02;39.97;;;16.17;;
58083;SDS011;43882;51.550;11.858;2022-12-20T00:31:29;42.97;;;17.25;;
58083;SDS011;43882;51.550;11.858;2022-12-20T00:33:56;40.65;;;16.88;;
58083;SDS011;43882;51.550;11.858;2022-12-20T00:36:24;38.42;;;15.75;;
58083;SDS011;43882;51.550;11.858;2022-12-20T00:38:53;36.60;;;15.57;;
58083;SDS011;43882;51.550;11.858;2022-12-20T00:41:21;41.85;;;15.75;;
58083;SDS011;43882;51.550;11.858;2022-12-20T00:43:48;37.42;;;15.65;;
58083;SDS011;43882;51.550;11.858;2022-12-20T00:46:15;33.92;;;14.75;;
58083;SDS011;43882;51.550;11.858;2022-12-20T00:48:42;40.67;;;16.83;;
58083;SDS011;43882;51.550;11.858;2022-12-20T00:51:10;38.63;;;16.75;;
58083;SDS011;43882;51.550;11.858;2022-12-20T00:53:41;43.75;;;17.05;;
58083;SDS011;43882;51.550;11.858;2022-12-20T00:56:07;44.13;;;16.25;;
58083;SDS011;43882;51.550;11.858;2022-12-20T00:58:34;42.00;;;16.45;;
58083;SDS011;43882;51.550;11.858;2022-12-20T01:01:02;40.10;;;17.90;;
58083;SDS011;43882;51.550;11.858;2022-12-20T01:03:29;38.50;;;15.45;;
58083;SDS011;43882;51.550;11.858;2022-12-20T01:05:56;39.70;;;16.08;;
58083;SDS011;43882;51.550;11.858;2022-12-20T01:08:24;37.75;;;16.88;;
58083;SDS011;43882;51.550;11.858;2022-12-20T01:11:02;37.13;;;17.75;;
58083;SDS011;43882;51.550;11.858;2022-12-20T01:13:31;38.35;;;16.13;;
58083;SDS011;43882;51.550;11.858;2022-12-20T01:16:05;39.70;;;15.70;;
58083;SDS011;43882;51.550;11.858;2022-12-20T01:18:32;36.53;;;16.38;;
58083;SDS011;43882;51.550;11.858;2022-12-20T01:21:02;38.00;;;16.40;;
58083;SDS011;43882;51.550;11.858;2022-12-20T01:23:30;40.45;;;16.40;;
58083;SDS011;43882;51.550;11.858;2022-12-20T01:25:57;43.67;;;17.77;;
58083;SDS011;43882;51.550;11.858;2022-12-20T01:28:24;39.63;;;17.45;;
58083;SDS011;43882;51.550;11.858;2022-12-20T01:30:51;39.05;;;15.85;;
58083;SDS011;43882;51.550;11.858;2022-12-20T01:33:17;40.20;;;18.13;;
58083;SDS011;43882;51.550;11.858;2022-12-20T01:35:53;39.72;;;16.73;;
58083;SDS011;43882;51.550;11.858;2022-12-20T01:40:52;43.28;;;16.88;;
58083;SDS011;43882;51.550;11.858;2022-12-20T01:43:19;42.45;;;17.40;;
58083;SDS011;43882;51.550;11.858;2022-12-20T01:45:45;42.40;;;17.67;;
58083;SDS011;43882;51.550;11.858;2022-12-20T01:48:13;39.60;;;16.98;;
58083;SDS011;43882;51.550;11.858;2022-12-20T01:50:45;44.83;;;17.60;;
58083;SDS011;43882;51.550;11.858;2022-12-20T01:53:12;40.80;;;16.73;;
58083;SDS011;43882;51.550;11.858;2022-12-20T01:55:39;43.15;;;16.52;;
58083;SDS011;43882;51.550;11.858;2022-12-20T01:58:06;41.15;;;17.20;;
58083;SDS011;43882;51.550;11.858;2022-12-20T02:00:34;42.17;;;16.67;;
58083;SDS011;43882;51.550;11.858;2022-12-20T02:03:03;44.80;;;18.63;;
58083;SDS011;43882;51.550;11.858;2022-12-20T02:05:35;41.92;;;17.17;;
58083;SDS011;43882;51.550;11.858;2022-12-20T02:08:02;42.78;;;16.67;;
58083;SDS011;43882;51.550;11.858;2022-12-20T02:10:36;42.83;;;17.10;;
58083;SDS011;43882;51.550;11.858;2022-12-20T02:15:48;36.83;;;15.63;;
58083;SDS011;43882;51.550;11.858;2022-12-20T02:18:22;43.00;;;17.52;;
58083;SDS011;43882;51.550;11.858;2022-12-20T02:29:31;41.25;;;16.90;;
58083;SDS011;43882;51.550;11.858;2022-12-20T02:34:30;49.75;;;19.63;;
58083;SDS011;43882;51.550;11.858;2022-12-20T02:36:58;42.25;;;18.17;;
58083;SDS011;43882;51.550;11.858;2022-12-20T02:39:24;46.97;;;18.23;;
58083;SDS011;43882;51.550;11.858;2022-12-20T02:41:56;37.72;;;16.50;;
58083;SDS011;43882;51.550;11.858;2022-12-20T02:44:30;42.47;;;18.30;;
58083;SDS011;43882;51.550;11.858;2022-12-20T02:47:33;40.53;;;17.33;;
58083;SDS011;43882;51.550;11.858;2022-12-20T02:50:03;46.13;;;17.48;;
58083;SDS011;43882;51.550;11.858;2022-12-20T02:52:31;41.33;;;17.77;;
58083;SDS011;43882;51.550;11.858;2022-12-20T02:54:58;43.20;;;18.20;;
58083;SDS011;43882;51.550;11.858;2022-12-20T02:57:30;40.75;;;17.02;;
58083;SDS011;43882;51.550;11.858;2022-12-20T02:59:59;39.70;;;16.87;;
58083;SDS011;43882;51.550;11.858;2022-12-20T03:02:29;41.30;;;17.23;;
58083;SDS011;43882;51.550;11.858;2022-12-20T03:05:15;38.55;;;16.33;;
58083;SDS011;43882;51.550;11.858;2022-12-20T03:07:42;41.47;;;16.80;;
58083;SDS011;43882;51.550;11.858;2022-12-20T03:10:08;42.97;;;17.55;;
58083;SDS011;43882;51.550;11.858;2022-12-20T03:12:35;44.08;;;17.40;;
58083;SDS011;43882;51.550;11.858;2022-12-20T03:15:01;41.33;;;16.67;;
58083;SDS011;43882;51.550;11.858;2022-12-20T03:17:27;44.22;;;17.10;;
58083;SDS011;43882;51.550;11.858;2022-12-20T03:19:53;38.53;;;15.48;;
58083;SDS011;43882;51.550;11.858;2022-12-20T03:22:19;42.67;;;17.45;;
58083;SDS011;43882;51.550;11.858;2022-12-20T03:24:47;41.22;;;16.23;;
58083;SDS011;43882;51.550;11.858;2022-12-20T03:27:14;40.65;;;16.92;;
58083;SDS011;43882;51.550;11.858;2022-12-20T03:29:40;39.97;;;15.75;;
58083;SDS011;43882;51.550;11.858;2022-12-20T03:32:07;37.55;;;15.88;;
58083;SDS011;43882;51.550;11.858;2022-12-20T03:34:33;38.35;;;16.13;;
58083;SDS011;43882;51.550;11.858;2022-12-20T03:36:59;38.58;;;16.17;;
58083;SDS011;43882;51.550;11.858;2022-12-20T03:39:25;39.60;;;16.52;;
58083;SDS011;43882;51.550;11.858;2022-12-20T03:41:51;38.08;;;16.10;;
58083;SDS011;43882;51.550;11.858;2022-12-20T03:44:17;40.13;;;16.48;;
58083;SDS011;43882;51.550;11.858;2022-12-20T03:46:43;43.45;;;17.45;;
58083;SDS011;43882;51.550;11.858;2022-12-20T03:49:10;46.55;;;17.38;;
58083;SDS011;43882;51.550;11.858;2022-12-20T03:51:36;42.65;;;16.95;;
58083;SDS011;43882;51.550;11.858;2022-12-20T03:54:02;38.30;;;15.73;;
58083;SDS011;43882;51.550;11.858;2022-12-20T03:56:28;38.60;;;16.83;;
58083;SDS011;43882;51.550;11.858;2022-12-20T03:58:54;37.08;;;16.25;;
58083;SDS011;43882;51.550;11.858;2022-12-20T04:01:21;38.40;;;15.27;;
58083;SDS011;43882;51.550;11.858;2022-12-20T04:03:49;37.38;;;16.02;;
58083;SDS011;43882;51.550;11.858;2022-12-20T04:06:15;36.17;;;15.27;;
58083;SDS011;43882;51.550;11.858;2022-12-20T04:08:41;39.47;;;16.08;;
58083;SDS011;43882;51.550;11.858;2022-12-20T04:11:08;37.33;;;16.05;;
58083;SDS011;43882;51.550;11.858;2022-12-20T04:13:41;37.60;;;16.00;;
58083;SDS011;43882;51.550;11.858;2022-12-20T04:16:08;38.17;;;15.98;;
58083;SDS011;43882;51.550;11.858;2022-12-20T04:18:35;35.22;;;14.50;;
58083;SDS011;43882;51.550;11.858;2022-12-20T04:21:02;40.20;;;15.13;;
58083;SDS011;43882;51.550;11.858;2022-12-20T04:23:28;37.50;;;15.50;;
58083;SDS011;43882;51.550;11.858;2022-12-20T04:25:54;36.75;;;15.88;;
58083;SDS011;43882;51.550;11.858;2022-12-20T04:28:20;35.65;;;14.80;;
58083;SDS011;43882;51.550;11.858;2022-12-20T04:30:46;41.92;;;15.70;;
58083;SDS011;43882;51.550;11.858;2022-12-20T04:33:12;39.25;;;16.48;;
58083;SDS011;43882;51.550;11.858;2022-12-20T04:35:38;36.65;;;16.50;;
58083;SDS011;43882;51.550;11.858;2022-12-20T04:38:05;39.22;;;15.38;;
58083;SDS011;43882;51.550;11.858;2022-12-20T04:40:31;38.53;;;15.68;;
58083;SDS011;43882;51.550;11.858;2022-12-20T04:42:57;37.97;;;15.63;;
58083;SDS011;43882;51.550;11.858;2022-12-20T04:45:23;40.20;;;15.45;;
58083;SDS011;43882;51.550;11.858;2022-12-20T04:47:49;44.25;;;16.10;;
58083;SDS011;43882;51.550;11.858;2022-12-20T04:50:15;36.85;;;16.55;;
58083;SDS011;43882;51.550;11.858;2022-12-20T04:52:43;37.67;;;15.68;;
58083;SDS011;43882;51.550;11.858;2022-12-20T04:55:28;39.05;;;16.38;;
58083;SDS011;43882;51.550;11.858;2022-12-20T04:57:54;40.03;;;16.08;;
58083;SDS011;43882;51.550;11.858;2022-12-20T05:00:20;38.85;;;16.58;;
58083;SDS011;43882;51.550;11.858;2022-12-20T05:02:46;34.00;;;14.63;;
58083;SDS011;43882;51.550;11.858;2022-12-20T05:05:12;35.45;;;15.10;;
58083;SDS011;43882;51.550;11.858;2022-12-20T05:07:38;38.10;;;16.00;;
58083;SDS011;43882;51.550;11.858;2022-12-20T05:10:05;42.22;;;17.92;;
58083;SDS011;43882;51.550;11.858;2022-12-20T05:12:31;38.40;;;17.70;;
58083;SDS011;43882;51.550;11.858;2022-12-20T05:14:58;40.28;;;17.60;;
58083;SDS011;43882;51.550;11.858;2022-12-20T05:17:24;38.75;;;15.98;;
58083;SDS011;43882;51.550;11.858;2022-12-20T05:19:50;43.35;;;18.05;;
58083;SDS011;43882;51.550;11.858;2022-12-20T05:22:16;41.00;;;15.70;;
58083;SDS011;43882;51.550;11.858;2022-12-20T05:25:01;35.22;;;15.35;;
58083;SDS011;43882;51.550;11.858;2022-12-20T05:27:45;40.67;;;15.73;;
58083;SDS011;43882;51.550;11.858;2022-12-20T05:30:11;36.90;;;15.00;;
58083;SDS011;43882;51.550;11.858;2022-12-20T05:32:38;36.47;;;15.07;;
58083;SDS011;43882;51.550;11.858;2022-12-20T05:35:04;35.20;;;14.35;;
58083;SDS011;43882;51.550;11.858;2022-12-20T05:37:30;34.78;;;14.70;;
58083;SDS011;43882;51.550;11.858;2022-12-20T05:39:56;37.30;;;14.48;;
58083;SDS011;43882;51.550;11.858;2022-12-20T05:42:22;32.58;;;13.13;;
58083;SDS011;43882;51.550;11.858;2022-12-20T05:44:48;29.63;;;12.30;;
58083;SDS011;43882;51.550;11.858;2022-12-20T05:47:15;34.15;;;14.80;;
58083;SDS011;43882;51.550;11.858;2022-12-20T05:49:41;34.20;;;13.90;;
58083;SDS011;43882;51.550;11.858;2022-12-20T05:52:07;34.13;;;14.32;;
58083;SDS011;43882;51.550;11.858;2022-12-20T05:54:34;31.88;;;12.75;;
58083;SDS011;43882;51.550;11.858;2022-12-20T05:57:00;32.08;;;13.95;;
58083;SDS011;43882;51.550;11.858;2022-12-20T05:59:26;30.75;;;14.13;;
58083;SDS011;43882;51.550;11.858;2022-12-20T06:01:53;33.55;;;13.80;;
58083;SDS011;43882;51.550;11.858;2022-12-20T06:04:19;32.75;;;13.25;;
58083;SDS011;43882;51.550;11.858;2022-12-20T06:06:45;31.02;;;13.35;;
58083;SDS011;43882;51.550;11.858;2022-12-20T06:09:11;31.05;;;13.52;;
58083;SDS011;43882;51.550;11.858;2022-12-20T06:11:37;30.60;;;12.85;;
58083;SDS011;43882;51.550;11.858;2022-12-20T06:14:03;32.38;;;13.20;;
58083;SDS011;43882;51.550;11.858;2022-12-20T06:16:29;30.25;;;13.60;;
58083;SDS011;43882;51.550;11.858;2022-12-20T06:18:56;32.42;;;13.95;;
58083;SDS011;43882;51.550;11.858;2022-12-20T06:21:22;34.70;;;13.95;;
58083;SDS011;43882;51.550;11.858;2022-12-20T06:23:48;34.03;;;13.73;;
58083;SDS011;43882;51.550;11.858;2022-12-20T06:26:14;33.15;;;13.68;;
58083;SDS011;43882;51.550;11.858;2022-12-20T06:28:40;32.13;;;13.27;;
58083;SDS011;43882;51.550;11.858;2022-12-20T06:31:07;31.63;;;14.20;;
58083;SDS011;43882;51.550;11.858;2022-12-20T06:33:35;33.63;;;14.98;;
58083;SDS011;43882;51.550;11.858;2022-12-20T06:36:01;41.42;;;18.45;;
58083;SDS011;43882;51.550;11.858;2022-12-20T06:38:27;43.25;;;19.35;;
58083;SDS011;43882;51.550;11.858;2022-12-20T06:40:54;38.65;;;16.95;;
58083;SDS011;43882;51.550;11.858;2022-12-20T06:43:20;36.47;;;16.80;;
58083;SDS011;43882;51.550;11.858;2022-12-20T06:45:46;35.00;;;16.88;;
58083;SDS011;43882;51.550;11.858;2022-12-20T06:48:12;47.45;;;23.45;;
58083;SDS011;43882;51.550;11.858;2022-12-20T06:50:38;48.05;;;22.40;;
58083;SDS011;43882;51.550;11.858;2022-12-20T06:53:04;39.28;;;18.58;;
58083;SDS011;43882;51.550;11.858;2022-12-20T06:55:30;45.17;;;25.27;;
58083;SDS011;43882;51.550;11.858;2022-12-20T06:57:56;43.63;;;23.90;;
58083;SDS011;43882;51.550;11.858;2022-12-20T07:00:23;40.97;;;21.42;;
58083;SDS011;43882;51.550;11.858;2022-12-20T07:02:49;39.25;;;16.90;;
58083;SDS011;43882;51.550;11.858;2022-12-20T07:05:15;37.38;;;17.23;;
58083;SDS011;43882;51.550;11.858;2022-12-20T07:07:41;37.15;;;16.65;;
58083;SDS011;43882;51.550;11.858;2022-12-20T07:10:08;37.17;;;16.08;;
58083;SDS011;43882;51.550;11.858;2022-12-20T07:12:34;37.10;;;15.90;;
58083;SDS011;43882;51.550;11.858;2022-12-20T07:15:01;36.92;;;16.13;;
58083;SDS011;43882;51.550;11.858;2022-12-20T07:17:27;40.50;;;15.93;;
58083;SDS011;43882;51.550;11.858;2022-12-20T07:19:53;37.35;;;16.67;;
58083;SDS011;43882;51.550;11.858;2022-12-20T07:22:19;41.17;;;17.90;;
58083;SDS011;43882;51.550;11.858;2022-12-20T07:24:45;41.28;;;18.83;;
58083;SDS011;43882;51.550;11.858;2022-12-20T07:27:12;42.10;;;18.77;;
58083;SDS011;43882;51.550;11.858;2022-12-20T07:29:38;40.60;;;18.67;;
58083;SDS011;43882;51.550;11.858;2022-12-20T07:32:05;42.08;;;20.15;;
58083;SDS011;43882;51.550;11.858;2022-12-20T07:34:32;43.42;;;18.85;;
58083;SDS011;43882;51.550;11.858;2022-12-20T07:36:58;41.75;;;17.85;;
58083;SDS011;43882;51.550;11.858;2022-12-20T07:39:24;38.28;;;17.63;;
58083;SDS011;43882;51.550;11.858;2022-12-20T07:41:53;40.05;;;17.83;;
58083;SDS011;43882;51.550;11.858;2022-12-20T07:44:20;43.65;;;17.27;;
58083;SDS011;43882;51.550;11.858;2022-12-20T07:46:46;41.10;;;17.90;;
58083;SDS011;43882;51.550;11.858;2022-12-20T07:49:13;38.17;;;16.83;;
58083;SDS011;43882;51.550;11.858;2022-12-20T07:51:41;39.42;;;17.30;;
58083;SDS011;43882;51.550;11.858;2022-12-20T07:54:11;36.63;;;17.40;;
58083;SDS011;43882;51.550;11.858;2022-12-20T07:56:40;38.05;;;18.02;;
58083;SDS011;43882;51.550;11.858;2022-12-20T07:59:09;41.50;;;17.77;;
58083;SDS011;43882;51.550;11.858;2022-12-20T08:01:36;40.78;;;18.00;;
58083;SDS011;43882;51.550;11.858;2022-12-20T08:04:04;42.35;;;19.40;;
58083;SDS011;43882;51.550;11.858;2022-12-20T08:06:32;40.42;;;18.77;;
58083;SDS011;43882;51.550;11.858;2022-12-20T08:08:59;41.13;;;19.50;;
58083;SDS011;43882;51.550;11.858;2022-12-20T08:11:28;43.70;;;18.13;;
58083;SDS011;43882;51.550;11.858;2022-12-20T08:13:55;47.15;;;18.95;;
58083;SDS011;43882;51.550;11.858;2022-12-20T08:16:21;38.60;;;17.73;;
58083;SDS011;43882;51.550;11.858;2022-12-20T08:18:47;40.15;;;17.02;;
58083;SDS011;43882;51.550;11.858;2022-12-20T08:21:13;40.35;;;16.95;;
58083;SDS011;43882;51.550;11.858;2022-12-20T08:23:40;38.83;;;16.00;;
58083;SDS011;43882;51.550;11.858;2022-12-20T08:26:06;39.58;;;17.20;;
58083;SDS011;43882;51.550;11.858;2022-12-20T08:28:32;41.10;;;16.02;;
58083;SDS011;43882;51.550;11.858;2022-12-20T08:31:03;37.47;;;15.55;;
58083;SDS011;43882;51.550;11.858;2022-12-20T08:33:30;35.85;;;15.40;;
58083;SDS011;43882;51.550;11.858;2022-12-20T08:35:58;33.75;;;15.32;;
58083;SDS011;43882;51.550;11.858;2022-12-20T08:38:26;36.83;;;15.55;;
58083;SDS011;43882;51.550;11.858;2022-12-20T08:40:54;31.90;;;13.57;;
58083;SDS011;43882;51.550;11.858;2022-12-20T08:43:32;33.28;;;13.73;;
58083;SDS011;43882;51.550;11.858;2022-12-20T08:45:58;35.28;;;15.25;;
58083;SDS011;43882;51.550;11.858;2022-12-20T08:48:25;31.65;;;14.27;;
58083;SDS011;43882;51.550;11.858;2022-12-20T08:50:55;33.20;;;14.73;;
58083;SDS011;43882;51.550;11.858;2022-12-20T08:53:22;31.65;;;14.10;;
58083;SDS011;43882;51.550;11.858;2022-12-20T08:55:49;35.40;;;14.88;;
58083;SDS011;43882;51.550;11.858;2022-12-20T08:58:15;36.03;;;15.30;;
58083;SDS011;43882;51.550;11.858;2022-12-20T09:00:41;32.85;;;14.18;;
58083;SDS011;43882;51.550;11.858;2022-12-20T09:03:07;33.55;;;15.23;;
58083;SDS011;43882;51.550;11.858;2022-12-20T09:05:35;36.88;;;16.13;;
58083;SDS011;43882;51.550;11.858;2022-12-20T09:08:07;37.05;;;16.08;;
58083;SDS011;43882;51.550;11.858;2022-12-20T09:10:33;34.63;;;15.13;;
58083;SDS011;43882;51.550;11.858;2022-12-20T09:12:59;34.17;;;15.02;;
58083;SDS011;43882;51.550;11.858;2022-12-20T09:15:26;32.65;;;14.88;;
58083;SDS011;43882;51.550;11.858;2022-12-20T09:17:52;37.70;;;15.13;;
58083;SDS011;43882;51.550;11.858;2022-12-20T09:20:19;34.83;;;15.68;;
58083;SDS011;43882;51.550;11.858;2022-12-20T09:22:45;37.75;;;15.75;;
58083;SDS011;43882;51.550;11.858;2022-12-20T09:25:11;31.67;;;14.38;;
58083;SDS011;43882;51.550;11.858;2022-12-20T09:27:38;36.63;;;16.05;;
58083;SDS011;43882;51.550;11.858;2022-12-20T09:30:04;33.83;;;15.85;;
58083;SDS011;43882;51.550;11.858;2022-12-20T09:32:31;38.22;;;17.98;;
58083;SDS011;43882;51.550;11.858;2022-12-20T09:34:57;35.63;;;15.27;;
58083;SDS011;43882;51.550;11.858;2022-12-20T09:37:23;34.50;;;15.57;;
58083;SDS011;43882;51.550;11.858;2022-12-20T09:39:49;37.72;;;16.35;;
58083;SDS011;43882;51.550;11.858;2022-12-20T09:42:15;33.75;;;16.15;;
58083;SDS011;43882;51.550;11.858;2022-12-20T09:44:44;40.13;;;17.90;;
58083;SDS011;43882;51.550;11.858;2022-12-20T09:47:13;35.13;;;16.60;;
58083;SDS011;43882;51.550;11.858;2022-12-20T09:49:48;37.03;;;17.85;;
58083;SDS011;43882;51.550;11.858;2022-12-20T09:57:56;39.90;;;19.23;;
58083;SDS011;43882;51.550;11.858;2022-12-20T10:00:33;41.03;;;19.23;;
58083;SDS011;43882;51.550;11.858;2022-12-20T10:03:03;40.03;;;19.25;;
58083;SDS011;43882;51.550;11.858;2022-12-20T10:06:04;38.83;;;18.67;;
58083;SDS011;43882;51.550;11.858;2022-12-20T10:13:57;40.28;;;18.85;;
58083;SDS011;43882;51.550;11.858;2022-12-20T10:16:46;42.88;;;19.13;;
58083;SDS011;43882;51.550;11.858;2022-12-20T10:19:33;38.50;;;17.00;;
58083;SDS011;43882;51.550;11.858;2022-12-20T10:22:22;40.13;;;18.17;;
58083;SDS011;43882;51.550;11.858;2022-12-20T10:27:40;34.25;;;16.17;;
58083;SDS011;43882;51.550;11.858;2022-12-20T10:30:26;37.30;;;17.35;;
58083;SDS011;43882;51.550;11.858;2022-12-20T10:32:53;38.45;;;16.17;;
58083;SDS011;43882;51.550;11.858;2022-12-20T10:40:41;36.72;;;14.88;;
58083;SDS011;43882;51.550;11.858;2022-12-20T10:43:14;37.33;;;15.85;;
58083;SDS011;43882;51.550;11.858;2022-12-20T10:45:42;33.33;;;14.50;;
58083;SDS011;43882;51.550;11.858;2022-12-20T10:48:29;33.92;;;15.07;;
58083;SDS011;43882;51.550;11.858;2022-12-20T10:53:35;33.80;;;15.40;;
58083;SDS011;43882;51.550;11.858;2022-12-20T10:58:55;34.08;;;15.48;;
58083;SDS011;43882;51.550;11.858;2022-12-20T11:01:28;36.67;;;16.38;;
58083;SDS011;43882;51.550;11.858;2022-12-20T11:03:57;36.45;;;16.10;;
58083;SDS011;43882;51.550;11.858;2022-12-20T11:12:00;34.80;;;15.00;;
58083;SDS011;43882;51.550;11.858;2022-12-20T11:14:27;35.80;;;16.25;;
58083;SDS011;43882;51.550;11.858;2022-12-20T11:16:54;36.05;;;16.33;;
58083;SDS011;43882;51.550;11.858;2022-12-20T11:22:17;37.33;;;15.32;;
58083;SDS011;43882;51.550;11.858;2022-12-20T11:25:06;37.08;;;16.23;;
58083;SDS011;43882;51.550;11.858;2022-12-20T11:27:45;44.20;;;19.45;;
58083;SDS011;43882;51.550;11.858;2022-12-20T11:30:20;41.60;;;19.00;;
58083;SDS011;43882;51.550;11.858;2022-12-20T11:35:49;36.15;;;17.48;;
58083;SDS011;43882;51.550;11.858;2022-12-20T11:38:32;36.40;;;16.73;;
58083;SDS011;43882;51.550;11.858;2022-12-20T11:41:21;34.45;;;15.70;;
58083;SDS011;43882;51.550;11.858;2022-12-20T11:44:22;35.40;;;15.65;;
58083;SDS011;43882;51.550;11.858;2022-12-20T11:49:55;36.83;;;18.10;;
58083;SDS011;43882;51.550;11.858;2022-12-20T11:52:35;40.00;;;18.95;;
58083;SDS011;43882;51.550;11.858;2022-12-20T11:58:22;35.38;;;16.20;;
58083;SDS011;43882;51.550;11.858;2022-12-20T12:00:37;35.58;;;17.02;;
58083;SDS011;43882;51.550;11.858;2022-12-20T12:03:18;38.00;;;18.55;;
58083;SDS011;43882;51.550;11.858;2022-12-20T12:05:53;50.78;;;27.08;;
58083;SDS011;43882;51.550;11.858;2022-12-20T12:08:39;40.05;;;20.27;;
58083;SDS011;43882;51.550;11.858;2022-12-20T12:11:18;80.45;;;35.45;;
58083;SDS011;43882;51.550;11.858;2022-12-20T12:13:48;39.88;;;20.98;;
58083;SDS011;43882;51.550;11.858;2022-12-20T12:18:42;38.60;;;22.13;;
58083;SDS011;43882;51.550;11.858;2022-12-20T12:23:49;39.78;;;20.58;;
58083;SDS011;43882;51.550;11.858;2022-12-20T12:26:31;43.15;;;21.42;;
58083;SDS011;43882;51.550;11.858;2022-12-20T12:29:08;36.30;;;19.77;;
58083;SDS011;43882;51.550;11.858;2022-12-20T12:31:40;38.15;;;20.77;;
58083;SDS011;43882;51.550;11.858;2022-12-20T12:37:19;40.50;;;20.83;;
58083;SDS011;43882;51.550;11.858;2022-12-20T12:42:40;38.13;;;18.77;;
58083;SDS011;43882;51.550;11.858;2022-12-20T12:45:25;41.10;;;20.90;;
58083;SDS011;43882;51.550;11.858;2022-12-20T12:48:00;37.38;;;20.60;;
58083;SDS011;43882;51.550;11.858;2022-12-20T12:50:28;40.97;;;23.27;;
58083;SDS011;43882;51.550;11.858;2022-12-20T12:53:07;34.05;;;16.45;;
58083;SDS011;43882;51.550;11.858;2022-12-20T12:55:41;36.47;;;17.90;;
58083;SDS011;43882;51.550;11.858;2022-12-20T13:03:34;35.38;;;16.58;;
58083;SDS011;43882;51.550;11.858;2022-12-20T13:11:42;33.00;;;15.87;;
58083;SDS011;43882;51.550;11.858;2022-12-20T13:16:52;30.80;;;14.45;;
58083;SDS011;43882;51.550;11.858;2022-12-20T13:19:39;30.95;;;14.57;;
58083;SDS011;43882;51.550;11.858;2022-12-20T13:22:19;33.65;;;17.05;;
58083;SDS011;43882;51.550;11.858;2022-12-20T13:24:58;34.92;;;20.38;;
58083;SDS011;43882;51.550;11.858;2022-12-20T13:37:50;33.95;;;16.80;;
58083;SDS011;43882;51.550;11.858;2022-12-20T13:45:47;30.48;;;14.25;;
58083;SDS011;43882;51.550;11.858;2022-12-20T13:48:27;33.03;;;14.95;;
58083;SDS011;43882;51.550;11.858;2022-12-20T13:50:59;29.25;;;13.45;;
58083;SDS011;43882;51.550;11.858;2022-12-20T13:53:26;35.55;;;15.57;;
58083;SDS011;43882;51.550;11.858;2022-12-20T13:55:52;30.65;;;14.68;;
58083;SDS011;43882;51.550;11.858;2022-12-20T13:58:20;30.83;;;14.25;;
58083;SDS011;43882;51.550;11.858;2022-12-20T14:01:02;33.33;;;15.70;;
58083;SDS011;43882;51.550;11.858;2022-12-20T14:03:30;30.92;;;13.60;;
58083;SDS011;43882;51.550;11.858;2022-12-20T14:05:57;31.73;;;15.13;;
58083;SDS011;43882;51.550;11.858;2022-12-20T14:08:28;32.38;;;14.45;;
58083;SDS011;43882;51.550;11.858;2022-12-20T14:11:05;30.88;;;14.23;;
58083;SDS011;43882;51.550;11.858;2022-12-20T14:13:33;35.15;;;20.13;;
58083;SDS011;43882;51.550;11.858;2022-12-20T14:16:06;31.33;;;14.43;;
58083;SDS011;43882;51.550;11.858;2022-12-20T14:18:39;28.80;;;13.57;;
58083;SDS011;43882;51.550;11.858;2022-12-20T14:21:09;29.77;;;13.57;;
58083;SDS011;43882;51.550;11.858;2022-12-20T14:23:46;31.27;;;14.32;;
58083;SDS011;43882;51.550;11.858;2022-12-20T14:26:15;28.88;;;13.73;;
58083;SDS011;43882;51.550;11.858;2022-12-20T14:28:49;30.42;;;13.40;;
58083;SDS011;43882;51.550;11.858;2022-12-20T14:31:23;30.65;;;15.43;;
58083;SDS011;43882;51.550;11.858;2022-12-20T14:34:00;33.33;;;16.15;;
58083;SDS011;43882;51.550;11.858;2022-12-20T14:36:40;30.75;;;15.02;;
58083;SDS011;43882;51.550;11.858;2022-12-20T14:41:59;28.48;;;14.52;;
58083;SDS011;43882;51.550;11.858;2022-12-20T14:44:27;29.58;;;13.35;;
58083;SDS011;43882;51.550;11.858;2022-12-20T14:46:58;33.03;;;14.65;;
58083;SDS011;43882;51.550;11.858;2022-12-20T14:49:26;32.22;;;15.25;;
58083;SDS011;43882;51.550;11.858;2022-12-20T14:52:06;30.00;;;14.43;;
58083;SDS011;43882;51.550;11.858;2022-12-20T14:54:41;33.30;;;15.13;;
58083;SDS011;43882;51.550;11.858;2022-12-20T14:59:57;35.55;;;16.10;;
58083;SDS011;43882;51.550;11.858;2022-12-20T15:10:48;36.58;;;16.08;;
58083;SDS011;43882;51.550;11.858;2022-12-20T15:13:35;32.22;;;16.20;;
58083;SDS011;43882;51.550;11.858;2022-12-20T15:16:02;29.48;;;12.90;;
58083;SDS011;43882;51.550;11.858;2022-12-20T15:18:30;32.22;;;13.43;;
58083;SDS011;43882;51.550;11.858;2022-12-20T15:20:59;26.50;;;12.63;;
58083;SDS011;43882;51.550;11.858;2022-12-20T15:23:27;30.48;;;13.50;;
58083;SDS011;43882;51.550;11.858;2022-12-20T15:25:53;31.73;;;13.93;;
58083;SDS011;43882;51.550;11.858;2022-12-20T15:28:20;30.60;;;14.90;;
58083;SDS011;43882;51.550;11.858;2022-12-20T15:30:47;34.08;;;15.05;;
58083;SDS011;43882;51.550;11.858;2022-12-20T15:33:25;33.58;;;16.20;;
58083;SDS011;43882;51.550;11.858;2022-12-20T15:35:52;39.17;;;18.10;;
58083;SDS011;43882;51.550;11.858;2022-12-20T15:38:22;35.80;;;14.75;;
58083;SDS011;43882;51.550;11.858;2022-12-20T15:40:50;30.23;;;14.77;;
58083;SDS011;43882;51.550;11.858;2022-12-20T15:43:19;33.40;;;14.43;;
58083;SDS011;43882;51.550;11.858;2022-12-20T15:45:47;33.20;;;16.02;;
58083;SDS011;43882;51.550;11.858;2022-12-20T15:48:16;50.97;;;22.83;;
58083;SDS011;43882;51.550;11.858;2022-12-20T15:50:53;43.78;;;21.17;;
58083;SDS011;43882;51.550;11.858;2022-12-20T15:53:24;40.22;;;20.08;;
58083;SDS011;43882;51.550;11.858;2022-12-20T15:55:52;85.70;;;42.45;;
58083;SDS011;43882;51.550;11.858;2022-12-20T15:58:20;88.68;;;44.95;;
58083;SDS011;43882;51.550;11.858;2022-12-20T16:00:47;39.22;;;21.08;;
58083;SDS011;43882;51.550;11.858;2022-12-20T16:03:14;43.13;;;21.45;;
58083;SDS011;43882;51.550;11.858;2022-12-20T16:05:45;50.35;;;26.20;;
58083;SDS011;43882;51.550;11.858;2022-12-20T16:08:12;54.55;;;27.13;;
58083;SDS011;43882;51.550;11.858;2022-12-20T16:10:38;55.75;;;30.70;;
58083;SDS011;43882;51.550;11.858;2022-12-20T16:13:05;59.42;;;32.80;;
58083;SDS011;43882;51.550;11.858;2022-12-20T16:15:32;56.40;;;26.30;;